createdAt,value
2023-02-01T00:01:10.050Z,5.38
2023-02-01T00:03:37.856Z,4.57
2023-02-01T00:06:05.645Z,3.85
2023-02-01T00:08:32.867Z,4.95
2023-02-01T00:11:02.972Z,5.13
2023-02-01T00:13:33.589Z,4.72
2023-02-01T00:16:13.132Z,4.35
2023-02-01T00:18:40.381Z,4.00
2023-02-01T00:21:07.537Z,4.38
2023-02-01T00:23:37.163Z,4.53
2023-02-01T00:26:06.844Z,5.00
2023-02-01T00:28:34.525Z,4.95
2023-02-01T00:31:05.631Z,5.35
2023-02-01T00:33:34.185Z,4.22
2023-02-01T00:36:05.525Z,4.50
2023-02-01T00:38:35.220Z,4.57
2023-02-01T00:41:10.880Z,4.43
2023-02-01T00:43:38.381Z,4.93
2023-02-01T00:46:05.944Z,5.07
2023-02-01T00:48:33.663Z,5.32
2023-02-01T00:51:04.406Z,4.28
2023-02-01T00:53:31.650Z,3.85
2023-02-01T00:55:58.953Z,5.28
2023-02-01T00:58:26.723Z,4.60
2023-02-01T01:01:09.448Z,4.75
2023-02-01T01:03:41.291Z,5.22
2023-02-01T01:06:18.496Z,5.22
2023-02-01T01:08:45.937Z,4.53
2023-02-01T01:11:21.119Z,4.40
2023-02-01T01:13:50.745Z,4.82
2023-02-01T01:16:20.110Z,4.25
2023-02-01T01:18:48.483Z,4.65
2023-02-01T01:21:17.566Z,4.30
2023-02-01T01:23:46.549Z,4.72
2023-02-01T01:26:21.725Z,4.72
2023-02-01T01:28:49.823Z,5.57
2023-02-01T01:31:21.874Z,7.75
2023-02-01T01:33:52.212Z,6.23
2023-02-01T01:36:20.153Z,5.45
2023-02-01T01:38:47.999Z,4.45
2023-02-01T01:41:23.204Z,4.35
2023-02-01T01:43:56.952Z,4.97
2023-02-01T01:46:31.935Z,4.80
2023-02-01T01:49:15.271Z,4.45
2023-02-01T01:51:58.269Z,5.20
2023-02-01T01:54:34.141Z,5.03
2023-02-01T01:57:15.548Z,4.70
2023-02-01T01:59:50.956Z,5.85
2023-02-01T02:02:18.516Z,5.38
2023-02-01T02:04:46.969Z,4.93
2023-02-01T02:07:29.011Z,4.53
2023-02-01T02:10:00.899Z,5.03
2023-02-01T02:12:29.493Z,5.32
2023-02-01T02:14:59.872Z,4.63
2023-02-01T02:17:48.164Z,4.95
2023-02-01T02:20:39.548Z,5.75
2023-02-01T02:23:38.729Z,4.80
2023-02-01T02:26:37.042Z,4.70
2023-02-01T02:29:47.335Z,5.30
2023-02-01T02:32:48.428Z,4.93
2023-02-01T02:35:43.205Z,5.50
2023-02-01T02:39:03.593Z,4.72
2023-02-01T02:42:26.407Z,4.88
2023-02-01T02:45:27.408Z,4.30
2023-02-01T02:48:26.057Z,4.65
2023-02-01T02:51:27.251Z,4.90
2023-02-01T02:54:34.836Z,5.70
2023-02-01T02:57:25.916Z,6.07
2023-02-01T03:00:13.509Z,3.97
2023-02-01T03:03:00.290Z,4.78
2023-02-01T03:05:35.024Z,5.65
2023-02-01T03:08:05.132Z,5.22
2023-02-01T03:11:00.928Z,4.38
2023-02-01T03:13:38.376Z,4.63
2023-02-01T03:16:29.582Z,4.47
2023-02-01T03:19:08.000Z,5.25
2023-02-01T03:21:45.911Z,5.05
2023-02-01T03:24:35.104Z,5.13
2023-02-01T03:27:15.694Z,4.03
2023-02-01T03:29:57.009Z,4.97
2023-02-01T03:32:24.566Z,5.38
2023-02-01T03:34:54.548Z,5.10
2023-02-01T03:37:28.796Z,4.47
2023-02-01T03:40:05.604Z,4.68
2023-02-01T03:42:41.741Z,4.97
2023-02-01T03:45:35.339Z,4.78
2023-02-01T03:48:05.524Z,4.82
2023-02-01T03:50:39.379Z,5.13
2023-02-01T03:53:15.704Z,4.78
2023-02-01T03:55:43.564Z,4.95
2023-02-01T03:58:16.315Z,4.47
2023-02-01T04:00:54.838Z,4.70
2023-02-01T04:03:23.298Z,5.40
2023-02-01T04:05:51.734Z,5.63
2023-02-01T04:08:21.149Z,4.72
2023-02-01T04:10:48.407Z,4.82
2023-02-01T04:13:15.533Z,4.85
2023-02-01T04:15:42.680Z,5.53
2023-02-01T04:18:09.961Z,4.57
2023-02-01T04:20:37.127Z,4.60
2023-02-01T04:23:04.302Z,4.50
2023-02-01T04:25:31.439Z,4.30
2023-02-01T04:27:58.714Z,4.75
2023-02-01T04:30:26.141Z,4.93
2023-02-01T04:32:53.424Z,4.28
2023-02-01T04:35:20.543Z,4.53
2023-02-01T04:37:47.696Z,4.68
2023-02-01T04:40:14.947Z,4.78
2023-02-01T04:42:42.315Z,4.95
2023-02-01T04:45:10.033Z,4.30
2023-02-01T04:47:37.293Z,4.82
2023-02-01T04:50:05.230Z,4.35
2023-02-01T04:52:33.220Z,7.38
2023-02-01T04:55:01.255Z,5.53
2023-02-01T04:57:28.382Z,5.07
2023-02-01T04:59:55.857Z,5.60
2023-02-01T05:02:23.010Z,4.75
2023-02-01T05:04:51.516Z,4.72
2023-02-01T05:07:18.963Z,5.40
2023-02-01T05:09:46.129Z,5.82
2023-02-01T05:12:31.837Z,4.82
2023-02-01T05:14:58.965Z,4.22
2023-02-01T05:17:27.546Z,5.10
2023-02-01T05:19:54.676Z,4.70
2023-02-01T05:22:21.812Z,4.43
2023-02-01T05:24:48.954Z,5.70
2023-02-01T05:27:16.093Z,4.30
2023-02-01T05:29:43.236Z,5.32
2023-02-01T05:32:21.609Z,9.73
2023-02-01T05:34:50.158Z,6.50
2023-02-01T05:37:17.344Z,5.00
2023-02-01T05:39:44.632Z,5.18
2023-02-01T05:42:11.948Z,5.70
2023-02-01T05:44:39.080Z,5.35
2023-02-01T05:47:06.296Z,5.32
2023-02-01T05:49:33.572Z,5.18
2023-02-01T05:52:00.899Z,4.22
2023-02-01T05:54:28.067Z,4.78
2023-02-01T05:56:55.229Z,5.63
2023-02-01T05:59:23.100Z,4.68
2023-02-01T06:01:50.261Z,6.65
2023-02-01T06:04:17.395Z,4.68
2023-02-01T06:06:44.543Z,4.95
2023-02-01T06:09:11.710Z,4.63
2023-02-01T06:11:41.289Z,4.95
2023-02-01T06:14:08.896Z,4.72
2023-02-01T06:16:36.053Z,4.70
2023-02-01T06:19:03.244Z,5.30
2023-02-01T06:21:30.448Z,5.32
2023-02-01T06:23:58.705Z,5.13
2023-02-01T06:26:26.459Z,4.97
2023-02-01T06:28:53.642Z,5.32
2023-02-01T06:31:20.861Z,5.15
2023-02-01T06:33:48.146Z,5.85
2023-02-01T06:36:16.947Z,4.80
2023-02-01T06:38:44.166Z,5.07
2023-02-01T06:41:12.039Z,6.10
2023-02-01T06:43:39.313Z,5.50
2023-02-01T06:46:10.834Z,5.40
2023-02-01T06:48:38.357Z,5.57
2023-02-01T06:51:06.031Z,5.03
2023-02-01T06:53:33.748Z,6.20
2023-02-01T06:56:03.810Z,5.50
2023-02-01T06:58:33.977Z,6.93
2023-02-01T07:01:09.519Z,4.40
2023-02-01T07:03:36.829Z,3.72
2023-02-01T07:06:05.480Z,3.67
2023-02-01T07:08:35.801Z,4.07
2023-02-01T07:11:09.996Z,4.07
2023-02-01T07:13:38.318Z,4.70
2023-02-01T07:16:11.688Z,5.85
2023-02-01T07:18:39.635Z,5.00
2023-02-01T07:21:07.340Z,3.97
2023-02-01T07:23:36.412Z,4.15
2023-02-01T07:26:07.097Z,4.65
2023-02-01T07:28:36.724Z,5.97
2023-02-01T07:31:21.646Z,5.63
2023-02-01T07:33:52.537Z,4.50
2023-02-01T07:36:20.610Z,4.40
2023-02-01T07:38:48.218Z,4.05
2023-02-01T07:41:18.457Z,5.10
2023-02-01T07:43:45.721Z,4.55
2023-02-01T07:46:13.482Z,4.28
2023-02-01T07:48:40.685Z,4.63
2023-02-01T07:51:15.116Z,5.20
2023-02-01T07:53:43.686Z,4.97
2023-02-01T07:56:20.297Z,5.25
2023-02-01T07:58:52.209Z,4.97
2023-02-01T08:01:27.208Z,5.07
2023-02-01T08:04:00.359Z,4.47
2023-02-01T08:06:35.486Z,4.90
2023-02-01T08:09:04.775Z,3.90
2023-02-01T08:11:32.718Z,3.50
2023-02-01T08:14:00.200Z,3.45
2023-02-01T08:16:27.449Z,3.90
2023-02-01T08:18:55.250Z,4.50
2023-02-01T08:21:37.178Z,4.50
2023-02-01T08:24:06.878Z,4.20
2023-02-01T08:26:34.151Z,4.57
2023-02-01T08:29:05.769Z,4.32
2023-02-01T08:31:33.124Z,4.60
2023-02-01T08:34:05.106Z,3.83
2023-02-01T08:36:32.554Z,4.90
2023-02-01T08:38:59.940Z,4.43
2023-02-01T08:41:30.872Z,3.50
2023-02-01T08:43:58.999Z,3.25
2023-02-01T08:46:26.401Z,2.80
2023-02-01T08:48:53.559Z,3.13
2023-02-01T08:51:23.678Z,3.35
2023-02-01T08:53:51.484Z,2.83
2023-02-01T08:56:20.378Z,3.38
2023-02-01T08:58:47.630Z,3.00
2023-02-01T09:01:17.764Z,3.35
2023-02-01T09:03:45.291Z,2.92
2023-02-01T09:06:15.465Z,2.53
2023-02-01T09:08:43.748Z,2.75
2023-02-01T09:11:19.883Z,3.30
2023-02-01T09:13:48.853Z,2.90
2023-02-01T09:16:16.182Z,3.20
2023-02-01T09:18:55.491Z,3.42
2023-02-01T09:21:29.972Z,3.22
2023-02-01T09:23:57.106Z,2.85
2023-02-01T09:26:31.506Z,3.33
2023-02-01T09:29:01.276Z,2.90
2023-02-01T09:31:28.528Z,3.97
2023-02-01T09:33:55.772Z,2.20
2023-02-01T09:36:24.369Z,2.03
2023-02-01T09:38:53.301Z,1.65
2023-02-01T09:41:46.692Z,2.53
2023-02-01T09:44:44.849Z,2.00
2023-02-01T09:47:19.995Z,2.13
2023-02-01T09:50:07.361Z,2.45
2023-02-01T09:52:46.674Z,2.45
2023-02-01T09:55:26.052Z,2.40
2023-02-01T09:58:03.532Z,2.42
2023-02-01T10:00:38.369Z,3.30
2023-02-01T10:03:11.617Z,3.45
2023-02-01T10:06:19.337Z,2.90
2023-02-01T10:09:17.833Z,4.13
2023-02-01T10:12:17.921Z,3.88
2023-02-01T10:15:03.010Z,3.65
2023-02-01T10:17:59.283Z,4.18
2023-02-01T10:20:51.376Z,3.88
2023-02-01T10:23:58.909Z,4.00
2023-02-01T10:26:38.887Z,3.97
2023-02-01T10:29:23.237Z,3.90
2023-02-01T10:31:50.598Z,3.30
2023-02-01T10:34:27.052Z,4.13
2023-02-01T10:37:02.228Z,4.22
2023-02-01T10:39:29.506Z,3.88
2023-02-01T10:41:57.672Z,4.13
2023-02-01T10:44:36.197Z,3.60
2023-02-01T10:47:03.352Z,3.45
2023-02-01T10:49:44.588Z,3.45
2023-02-01T10:52:39.524Z,3.72
2023-02-01T10:55:41.105Z,3.45
2023-02-01T10:58:22.289Z,4.07
2023-02-01T11:01:00.973Z,3.58
2023-02-01T11:03:53.075Z,4.35
2023-02-01T11:06:29.077Z,4.07
2023-02-01T11:09:06.635Z,4.20
2023-02-01T11:11:52.957Z,4.70
2023-02-01T11:14:25.763Z,3.33
2023-02-01T11:17:01.075Z,3.97
2023-02-01T11:19:29.480Z,3.67
2023-02-01T11:22:01.635Z,3.97
2023-02-01T11:24:39.114Z,3.60
2023-02-01T11:27:27.274Z,3.38
2023-02-01T11:30:02.440Z,4.50
2023-02-01T11:32:30.470Z,4.72
2023-02-01T11:35:07.466Z,4.03
2023-02-01T11:37:41.281Z,3.80
2023-02-01T11:40:17.285Z,3.95
2023-02-01T11:43:30.275Z,4.10
2023-02-01T11:46:03.868Z,4.28
2023-02-01T11:48:34.511Z,3.97
2023-02-01T11:51:09.445Z,4.00
2023-02-01T11:54:17.506Z,3.95
2023-02-01T11:57:20.280Z,3.80
2023-02-01T12:00:35.838Z,4.03
2023-02-01T12:03:11.075Z,3.50
2023-02-01T12:05:59.497Z,3.63
2023-02-01T12:09:03.665Z,3.90
2023-02-01T12:11:51.169Z,4.07
2023-02-01T12:14:38.262Z,4.55
2023-02-01T12:17:54.910Z,4.00
2023-02-01T12:20:43.888Z,5.32
2023-02-01T12:23:51.304Z,4.00
2023-02-01T12:26:49.012Z,3.78
2023-02-01T12:29:34.453Z,3.83
2023-02-01T12:32:25.812Z,4.07
2023-02-01T12:35:10.709Z,3.75
2023-02-01T12:38:07.099Z,4.13
2023-02-01T12:41:05.460Z,4.40
2023-02-01T12:44:02.700Z,4.05
2023-02-01T12:46:38.047Z,4.18
2023-02-01T12:49:42.852Z,4.30
2023-02-01T12:52:39.312Z,4.70
2023-02-01T12:55:34.923Z,4.28
2023-02-01T12:58:15.891Z,3.28
2023-02-01T13:01:22.977Z,3.75
2023-02-01T13:04:24.852Z,3.65
2023-02-01T13:07:03.124Z,4.53
2023-02-01T13:09:42.876Z,4.38
2023-02-01T13:12:41.553Z,5.43
2023-02-01T13:15:26.486Z,5.50
2023-02-01T13:18:01.103Z,3.80
2023-02-01T13:20:39.217Z,4.13
2023-02-01T13:23:22.737Z,4.20
2023-02-01T13:25:52.828Z,3.75
2023-02-01T13:28:40.561Z,3.25
2023-02-01T13:31:40.389Z,3.35
2023-02-01T13:34:33.529Z,3.60
2023-02-01T13:37:35.536Z,3.40
2023-02-01T13:40:34.755Z,3.08
2023-02-01T13:43:19.339Z,3.58
2023-02-01T13:45:52.042Z,2.83
2023-02-01T13:48:28.094Z,1.80
2023-02-01T13:51:00.695Z,1.60
2023-02-01T13:53:37.737Z,1.17
2023-02-01T13:56:19.588Z,1.00
2023-02-01T13:58:49.558Z,1.20
2023-02-01T14:01:22.542Z,1.42
2023-02-01T14:03:55.797Z,1.30
2023-02-01T14:06:28.867Z,1.48
2023-02-01T14:09:13.364Z,1.30
2023-02-01T14:11:51.778Z,1.45
2023-02-01T14:14:18.787Z,1.10
2023-02-01T14:17:11.944Z,1.05
2023-02-01T14:19:39.172Z,1.20
2023-02-01T14:22:15.361Z,1.45
2023-02-01T14:24:49.746Z,1.20
2023-02-01T14:27:25.832Z,1.08
2023-02-01T14:30:00.602Z,1.10
2023-02-01T14:32:39.318Z,1.20
2023-02-01T14:35:19.696Z,1.10
2023-02-01T14:37:53.381Z,0.90
2023-02-01T14:40:28.641Z,1.35
2023-02-01T14:42:58.101Z,1.10
2023-02-01T14:45:51.169Z,1.00
2023-02-01T14:48:18.238Z,1.25
2023-02-01T14:50:48.882Z,1.50
2023-02-01T14:53:25.637Z,1.10
2023-02-01T14:56:04.882Z,0.90
2023-02-01T14:59:10.999Z,1.08
2023-02-01T15:01:47.043Z,1.50
2023-02-01T15:04:19.845Z,1.20
2023-02-01T15:06:55.148Z,1.17
2023-02-01T15:09:30.498Z,1.05
2023-02-01T15:12:12.839Z,0.90
2023-02-01T15:15:03.712Z,1.10
2023-02-01T15:17:35.404Z,1.00
2023-02-01T15:20:19.802Z,1.10
2023-02-01T15:23:05.297Z,1.10
2023-02-01T15:25:39.475Z,1.20
2023-02-01T15:28:13.785Z,1.73
2023-02-01T15:30:52.159Z,1.40
2023-02-01T15:33:20.313Z,2.08
2023-02-01T15:35:51.348Z,1.77
2023-02-01T15:38:24.247Z,1.13
2023-02-01T15:41:06.014Z,1.70
2023-02-01T15:43:45.939Z,1.75
2023-02-01T15:46:30.829Z,1.90
2023-02-01T15:48:58.643Z,1.95
2023-02-01T15:51:31.532Z,1.55
2023-02-01T15:54:05.172Z,1.48
2023-02-01T15:56:39.430Z,1.80
2023-02-01T15:59:19.869Z,2.00
2023-02-01T16:01:51.133Z,1.88
2023-02-01T16:04:27.272Z,1.50
2023-02-01T16:07:01.034Z,1.58
2023-02-01T16:09:41.777Z,2.47
2023-02-01T16:12:36.662Z,1.80
2023-02-01T16:15:04.299Z,1.42
2023-02-01T16:17:32.606Z,1.80
2023-02-01T16:19:59.842Z,1.70
2023-02-01T16:22:27.058Z,2.40
2023-02-01T16:24:54.226Z,2.05
2023-02-01T16:27:23.149Z,1.50
2023-02-01T16:29:50.892Z,1.67
2023-02-01T16:32:21.993Z,2.10
2023-02-01T16:34:49.872Z,1.73
2023-02-01T16:37:23.935Z,2.00
2023-02-01T16:39:51.954Z,2.20
2023-02-01T16:42:19.239Z,2.80
2023-02-01T16:44:46.507Z,2.90
2023-02-01T16:47:22.237Z,3.40
2023-02-01T16:49:49.716Z,4.20
2023-02-01T16:52:24.809Z,6.60
2023-02-01T16:54:52.318Z,4.00
2023-02-01T16:57:24.272Z,3.70
2023-02-01T16:59:52.125Z,3.05
2023-02-01T17:02:20.971Z,3.83
2023-02-01T17:04:49.495Z,3.40
2023-02-01T17:07:19.787Z,4.15
2023-02-01T17:09:48.587Z,2.90
2023-02-01T17:12:31.495Z,2.88
2023-02-01T17:14:59.871Z,2.55
2023-02-01T17:17:39.168Z,1.67
2023-02-01T17:20:08.398Z,2.30
2023-02-01T17:22:35.578Z,2.20
2023-02-01T17:25:02.759Z,2.20
2023-02-01T17:27:30.242Z,2.17
2023-02-01T17:29:57.458Z,2.45
2023-02-01T17:32:26.249Z,1.90
2023-02-01T17:34:53.484Z,2.72
2023-02-01T17:37:32.735Z,2.47
2023-02-01T17:40:01.359Z,2.03
2023-02-01T17:42:31.198Z,1.70
2023-02-01T17:45:02.805Z,2.10
2023-02-01T17:47:29.917Z,2.80
2023-02-01T17:49:57.200Z,2.97
2023-02-01T17:52:26.155Z,6.03
2023-02-01T17:54:54.155Z,6.10
2023-02-01T17:57:21.825Z,3.60
2023-02-01T17:59:49.118Z,3.83
2023-02-01T18:02:25.571Z,3.45
2023-02-01T18:04:52.845Z,2.88
2023-02-01T18:07:20.127Z,3.80
2023-02-01T18:09:47.300Z,3.60
2023-02-01T18:12:22.245Z,5.47
2023-02-01T18:14:49.591Z,4.65
2023-02-01T18:17:16.767Z,3.80
2023-02-01T18:19:43.956Z,3.20
2023-02-01T18:22:19.077Z,3.20
2023-02-01T18:24:46.346Z,2.90
2023-02-01T18:27:13.540Z,2.75
2023-02-01T18:29:40.706Z,2.92
2023-02-01T18:32:10.680Z,2.58
2023-02-01T18:34:37.923Z,2.30
2023-02-01T18:37:05.074Z,1.73
2023-02-01T18:39:32.492Z,1.80
2023-02-01T18:41:59.869Z,1.67
2023-02-01T18:44:27.019Z,1.65
2023-02-01T18:46:54.257Z,1.90
2023-02-01T18:49:21.387Z,1.80
2023-02-01T18:51:48.677Z,1.48
2023-02-01T18:54:15.871Z,2.28
2023-02-01T18:56:43.635Z,1.52
2023-02-01T18:59:11.784Z,1.95
2023-02-01T19:01:39.208Z,2.85
2023-02-01T19:04:12.406Z,2.08
2023-02-01T19:06:50.619Z,2.42
2023-02-01T19:09:17.780Z,3.30
2023-02-01T19:11:44.940Z,5.43
2023-02-01T19:14:12.098Z,5.30
2023-02-01T19:16:39.805Z,3.25
2023-02-01T19:19:07.037Z,3.60
2023-02-01T19:21:34.150Z,6.15
2023-02-01T19:24:01.304Z,4.72
2023-02-01T19:26:28.487Z,5.72
2023-02-01T19:28:58.784Z,4.68
2023-02-01T19:31:26.148Z,2.78
2023-02-01T19:33:55.005Z,2.25
2023-02-01T19:36:22.295Z,2.15
2023-02-01T19:38:49.456Z,3.28
2023-02-01T19:41:16.670Z,2.08
2023-02-01T19:43:44.756Z,2.25
2023-02-01T19:46:12.832Z,2.30
2023-02-01T19:48:39.985Z,2.45
2023-02-01T19:51:08.402Z,2.20
2023-02-01T19:53:35.566Z,2.30
2023-02-01T19:56:02.839Z,2.60
2023-02-01T19:58:30.160Z,6.90
2023-02-01T20:00:57.455Z,4.47
2023-02-01T20:03:24.776Z,7.00
2023-02-01T20:05:53.880Z,7.82
2023-02-01T20:08:21.820Z,13.45
2023-02-01T20:10:49.117Z,4.70
2023-02-01T20:13:17.252Z,9.85
2023-02-01T20:15:44.976Z,7.60
2023-02-01T20:18:12.503Z,5.90
2023-02-01T20:20:41.817Z,3.25
2023-02-01T20:23:09.308Z,3.50
2023-02-01T20:25:38.200Z,3.40
2023-02-01T20:28:05.463Z,3.40
2023-02-01T20:30:32.913Z,3.90
2023-02-01T20:33:00.159Z,4.15
2023-02-01T20:35:28.914Z,3.97
2023-02-01T20:37:58.862Z,3.42
2023-02-01T20:40:26.139Z,4.57
2023-02-01T20:42:54.147Z,4.20
2023-02-01T20:45:21.436Z,3.83
2023-02-01T20:47:52.702Z,3.22
2023-02-01T20:50:20.528Z,4.88
2023-02-01T20:52:47.716Z,5.25
2023-02-01T20:55:14.926Z,3.63
2023-02-01T20:57:42.499Z,4.35
2023-02-01T21:00:10.748Z,4.70
2023-02-01T21:02:38.463Z,4.22
2023-02-01T21:05:06.211Z,4.10
2023-02-01T21:07:33.624Z,5.22
2023-02-01T21:10:00.774Z,4.35
2023-02-01T21:12:28.269Z,4.40
2023-02-01T21:14:55.483Z,4.15
2023-02-01T21:17:24.602Z,6.65
2023-02-01T21:19:51.743Z,4.55
2023-02-01T21:22:18.884Z,4.05
2023-02-01T21:24:46.285Z,4.22
2023-02-01T21:27:13.564Z,3.63
2023-02-01T21:29:41.021Z,4.03
2023-02-01T21:32:09.269Z,4.20
2023-02-01T21:34:36.634Z,4.00
2023-02-01T21:37:03.852Z,4.07
2023-02-01T21:39:31.129Z,4.22
2023-02-01T21:42:16.886Z,3.90
2023-02-01T21:44:48.492Z,4.57
2023-02-01T21:47:19.544Z,3.83
2023-02-01T21:49:49.221Z,4.25
2023-02-01T21:52:17.629Z,4.03
2023-02-01T21:54:45.261Z,3.75
2023-02-01T21:57:12.713Z,3.60
2023-02-01T21:59:43.263Z,3.75
2023-02-01T22:02:15.150Z,3.83
2023-02-01T22:04:43.449Z,4.82
2023-02-01T22:07:11.574Z,4.72
2023-02-01T22:09:38.939Z,4.13
2023-02-01T22:12:08.311Z,4.63
2023-02-01T22:14:35.512Z,4.70
2023-02-01T22:17:02.741Z,4.75
2023-02-01T22:19:30.431Z,3.55
2023-02-01T22:21:57.645Z,3.83
2023-02-01T22:24:24.964Z,4.57
2023-02-01T22:26:52.203Z,3.53
2023-02-01T22:29:19.473Z,3.38
2023-02-01T22:31:47.742Z,3.47
2023-02-01T22:34:15.568Z,3.78
2023-02-01T22:36:43.564Z,3.38
2023-02-01T22:39:10.979Z,4.15
2023-02-01T22:41:38.429Z,3.58
2023-02-01T22:44:06.682Z,3.55
2023-02-01T22:46:34.798Z,3.65
2023-02-01T22:49:03.433Z,3.58
2023-02-01T22:51:32.749Z,4.07
2023-02-01T22:54:00.396Z,3.53
2023-02-01T22:56:32.150Z,3.60
2023-02-01T22:59:05.379Z,3.83
2023-02-01T23:01:34.073Z,3.75
2023-02-01T23:04:05.581Z,3.80
2023-02-01T23:06:34.322Z,3.50
2023-02-01T23:09:11.285Z,3.97
2023-02-01T23:11:38.825Z,3.95
2023-02-01T23:14:06.607Z,3.90
2023-02-01T23:16:34.344Z,4.03
2023-02-01T23:19:02.217Z,4.50
2023-02-01T23:21:29.398Z,3.28
2023-02-01T23:23:59.654Z,4.28
2023-02-01T23:26:31.691Z,6.35
2023-02-01T23:29:00.839Z,3.53
2023-02-01T23:31:31.668Z,4.03
2023-02-01T23:34:01.240Z,3.92
2023-02-01T23:36:29.980Z,3.45
2023-02-01T23:38:57.470Z,5.57
2023-02-01T23:41:27.396Z,3.30
2023-02-01T23:43:57.784Z,4.72
2023-02-01T23:46:29.853Z,3.95
2023-02-01T23:48:58.526Z,3.70
2023-02-01T23:51:26.933Z,4.32
2023-02-01T23:53:55.485Z,4.85
2023-02-01T23:56:33.100Z,3.70
2023-02-01T23:59:03.176Z,4.32
